TimeEDT,TemperatureF,Dew PointF,Humidity,Sea Level PressureIn,VisibilityMPH,Wind Direction,Wind SpeedMPH,Gust SpeedMPH,PrecipitationIn,Events,Conditions,WindDirDegrees,DateUTC
12:53 AM,69.8,57.2,64,30.00,10.0,South,9.2,-,N/A,,Clear,180,2013-05-01 04:53:00
1:53 AM,68.0,55.9,65,30.01,10.0,South,10.4,-,N/A,,Clear,180,2013-05-01 05:53:00
2:53 AM,66.9,55.0,66,30.02,10.0,South,10.4,-,N/A,,Clear,180,2013-05-01 06:53:00
3:53 AM,64.9,54.0,68,30.04,10.0,South,8.1,-,N/A,,Clear,180,2013-05-01 07:53:00
4:53 AM,63.0,53.1,70,30.05,10.0,South,9.2,-,N/A,,Clear,170,2013-05-01 08:53:00
5:53 AM,61.0,52.0,72,30.06,10.0,SSE,9.2,-,N/A,,Partly Cloudy,160,2013-05-01 09:53:00
6:53 AM,59.0,51.1,75,30.09,10.0,South,8.1,-,N/A,,Scattered Clouds,170,2013-05-01 10:53:00
7:53 AM,64.9,53.1,65,30.11,10.0,South,6.9,-,N/A,,Scattered Clouds,180,2013-05-01 11:53:00
8:53 AM,69.1,53.1,57,30.13,10.0,South,10.4,-,N/A,,Scattered Clouds,190,2013-05-01 12:53:00
9:53 AM,73.0,54.0,51,30.13,10.0,South,8.1,-,N/A,,Partly Cloudy,190,2013-05-01 13:53:00
10:53 AM,77.0,55.9,48,30.14,10.0,SW,6.9,-,N/A,,Partly Cloudy,220,2013-05-01 14:53:00
11:53 AM,80.1,55.9,43,30.14,10.0,West,9.2,-,N/A,,Partly Cloudy,260,2013-05-01 15:53:00
12:53 PM,81.0,55.0,41,30.14,10.0,Variable,4.6,-,N/A,,Scattered Clouds,0,2013-05-01 16:53:00
1:53 PM,82.0,53.1,37,30.14,10.0,SSW,3.5,-,N/A,,Partly Cloudy,210,2013-05-01 17:53:00
2:53 PM,84.0,53.1,34,30.13,10.0,South,4.6,-,N/A,,Partly Cloudy,190,2013-05-01 18:53:00
3:53 PM,84.9,51.1,31,30.12,10.0,South,13.8,19.6,N/A,,Partly Cloudy,170,2013-05-01 19:53:00
4:53 PM,84.9,52.0,32,30.12,10.0,South,8.1,-,N/A,,Partly Cloudy,190,2013-05-01 20:53:00
5:53 PM,84.0,52.0,33,30.13,10.0,SSW,17.3,23.0,N/A,,Partly Cloudy,200,2013-05-01 21:53:00
6:53 PM,82.0,51.1,34,30.14,10.0,South,15.0,-,N/A,,Partly Cloudy,180,2013-05-01 22:53:00
7:53 PM,80.1,52.0,38,30.14,10.0,South,10.4,-,N/A,,Clear,170,2013-05-01 23:53:00
8:53 PM,73.9,53.1,48,30.16,10.0,SSE,5.8,-,N/A,,Clear,160,2013-05-02 00:53:00
9:53 PM,72.0,53.1,51,30.18,10.0,SSE,5.8,-,N/A,,Clear,150,2013-05-02 01:53:00
10:53 PM,70.0,54.0,57,30.19,10.0,SSE,6.9,-,N/A,,Clear,150,2013-05-02 02:53:00
11:53 PM,68.0,53.1,59,30.18,10.0,SSE,5.8,-,N/A,,Clear,150,2013-05-02 03:53:00